Time;durP1;ratioP1;P1;durP2;ratioP2;P2;SDS_P1;SDS_P2;PMS_P1;PMS_P2;Temp;Humidity;BMP_temperature;BMP_pressure;BME280_temperature;BME280_humidity;BME280_pressure;Samples;Min_cycle;Max_cycle;Signal;HPM_P1;HPM_P2
2023/12/03 00:00:36;;;;;;;0.00;0.00;;;26.20;48.90;;;;;;5034250;28;20307;-49
2023/12/03 00:03:06;;;;;;;0.00;0.00;;;26.20;48.80;;;;;;5035017;28;20188;-50
2023/12/03 00:05:38;;;;;;;0.00;0.00;;;26.30;48.90;;;;;;5034419;28;20203;-50
2023/12/03 00:08:09;;;;;;;0.00;0.00;;;26.30;48.80;;;;;;5034998;28;20196;-49
2023/12/03 00:10:43;;;;;;;0.00;0.00;;;26.40;48.80;;;;;;5034140;28;20250;-47
2023/12/03 00:13:14;;;;;;;0.00;0.00;;;26.40;49.40;;;;;;5014787;28;20200;-50
2023/12/03 00:15:45;;;;;;;0.00;0.00;;;26.50;48.80;;;;;;5014370;28;20575;-50
2023/12/03 00:18:15;;;;;;;0.00;0.00;;;26.50;48.80;;;;;;5014617;28;20360;-49
2023/12/03 00:20:46;;;;;;;0.00;0.00;;;26.50;48.80;;;;;;5014558;28;20220;-47
2023/12/03 00:23:17;;;;;;;0.00;0.00;;;26.50;48.80;;;;;;5014717;28;20572;-51
2023/12/03 00:25:49;;;;;;;0.00;0.00;;;26.60;48.90;;;;;;5031571;28;20204;-51
2023/12/03 00:28:20;;;;;;;0.00;0.00;;;26.60;48.90;;;;;;5034218;28;20215;-47
2023/12/03 00:30:51;;;;;;;0.00;0.00;;;26.60;48.90;;;;;;5033793;28;20216;-49
2023/12/03 00:33:22;;;;;;;0.00;0.00;;;26.70;48.90;;;;;;5033489;28;20192;-49
2023/12/03 00:35:52;;;;;;;0.00;0.00;;;26.60;48.90;;;;;;5030443;28;20192;-51
2023/12/03 00:38:23;;;;;;;0.00;0.00;;;26.70;48.90;;;;;;5029293;28;20184;-49
2023/12/03 00:40:56;;;;;;;0.00;0.00;;;26.70;48.80;;;;;;5033801;28;20216;-49
2023/12/03 00:43:26;;;;;;;0.00;0.00;;;26.70;48.90;;;;;;5033850;28;20204;-49
2023/12/03 00:45:57;;;;;;;0.00;0.00;;;26.80;48.90;;;;;;5033015;28;20203;-48
2023/12/03 00:48:28;;;;;;;0.00;0.00;;;26.80;48.70;;;;;;5033739;28;20258;-46
2023/12/03 00:50:59;;;;;;;0.00;0.00;;;26.90;48.80;;;;;;5021958;28;20220;-51
2023/12/03 00:53:29;;;;;;;0.00;0.00;;;26.90;48.70;;;;;;5014039;28;20646;-49
2023/12/03 00:56:02;;;;;;;0.00;0.00;;;26.90;48.70;;;;;;5032806;28;20200;-48
2023/12/03 00:58:33;;;;;;;0.00;0.00;;;27.00;48.70;;;;;;5034055;28;20207;-49
2023/12/03 01:01:04;;;;;;;0.00;0.00;;;27.00;48.60;;;;;;5033334;28;20696;-48
2023/12/03 01:03:35;;;;;;;0.00;0.00;;;27.10;48.70;;;;;;5033464;28;20199;-46
2023/12/03 01:06:05;;;;;;;0.00;0.00;;;27.10;48.70;;;;;;5033465;28;20192;-46
2023/12/03 01:08:36;;;;;;;0.00;0.00;;;27.10;48.90;;;;;;5033368;28;20200;-47
2023/12/03 01:11:10;;;;;;;0.00;0.00;;;27.10;48.60;;;;;;5033475;28;20216;-52
2023/12/03 01:13:41;;;;;;;0.00;0.00;;;27.20;48.60;;;;;;5033191;28;20203;-52
2023/12/03 01:16:18;;;;;;;0.00;0.00;;;27.20;48.70;;;;;;5033022;28;20559;-50
2023/12/03 01:18:49;;;;;;;0.00;0.00;;;27.20;48.70;;;;;;5033552;28;20200;-48
2023/12/03 01:21:19;;;;;;;0.00;0.00;;;27.20;48.70;;;;;;5033152;28;20224;-49
2023/12/03 01:23:50;;;;;;;0.00;0.00;;;27.30;48.80;;;;;;5033177;28;20200;-50
2023/12/03 01:26:23;;;;;;;0.00;0.00;;;27.30;48.80;;;;;;5033474;28;20205;-49
2023/12/03 01:28:53;;;;;;;0.00;0.00;;;27.30;48.80;;;;;;5032756;28;20219;-49
2023/12/03 01:31:24;;;;;;;0.00;0.00;;;27.30;48.80;;;;;;5032516;28;20753;-49
2023/12/03 01:33:55;;;;;;;0.00;0.00;;;27.40;48.80;;;;;;5032958;28;20192;-50
2023/12/03 01:36:25;;;;;;;0.00;0.00;;;27.40;48.70;;;;;;5033013;28;20196;-46
2023/12/03 01:38:56;;;;;;;0.00;0.00;;;27.40;48.60;;;;;;5032939;28;20208;-49
2023/12/03 01:41:29;;;;;;;0.00;0.00;;;27.50;48.60;;;;;;5032342;28;20676;-49
2023/12/03 01:43:59;;;;;;;0.00;0.00;;;27.50;48.60;;;;;;5032738;28;20212;-49
2023/12/03 01:46:31;;;;;;;0.00;0.00;;;27.50;48.50;;;;;;5032711;28;20195;-47
2023/12/03 01:49:02;;;;;;;0.00;0.00;;;27.60;48.50;;;;;;5032701;28;20243;-49
2023/12/03 01:51:33;;;;;;;0.00;0.00;;;27.60;48.40;;;;;;5032664;28;20216;-48
2023/12/03 01:54:03;;;;;;;0.00;0.00;;;27.60;48.40;;;;;;5032131;28;20208;-49
2023/12/03 01:56:36;;;;;;;0.00;0.00;;;27.70;48.40;;;;;;5031743;28;20196;-49
2023/12/03 01:59:07;;;;;;;0.00;0.00;;;27.70;48.40;;;;;;5031918;28;20207;-53
2023/12/03 02:01:38;;;;;;;0.00;0.00;;;27.70;48.40;;;;;;5031624;28;20208;-50
2023/12/03 02:04:09;;;;;;;0.00;0.00;;;27.70;48.30;;;;;;5032236;28;20196;-49
2023/12/03 02:06:39;;;;;;;0.00;0.00;;;27.80;48.40;;;;;;5032568;28;20205;-46
2023/12/03 02:09:12;;;;;;;0.00;0.00;;;27.80;48.40;;;;;;5032707;28;20489;-52
2023/12/03 02:11:45;;;;;;;0.00;0.00;;;27.80;48.40;;;;;;5032248;28;20244;-51
2023/12/03 02:14:16;;;;;;;0.00;0.00;;;27.80;48.40;;;;;;5032449;28;20196;-52
2023/12/03 02:16:48;;;;;;;0.00;0.00;;;27.90;48.40;;;;;;5032190;28;20207;-50
2023/12/03 02:19:19;;;;;;;0.00;0.00;;;27.90;48.40;;;;;;5032176;28;20201;-52
2023/12/03 02:21:50;;;;;;;0.00;0.00;;;27.90;48.40;;;;;;5031948;28;20220;-47
2023/12/03 02:24:23;;;;;;;0.00;0.00;;;27.90;48.30;;;;;;5028083;28;20200;-49
2023/12/03 02:26:53;;;;;;;0.00;0.00;;;27.90;48.30;;;;;;5031557;28;20207;-46
2023/12/03 02:29:24;;;;;;;0.00;0.00;;;28.00;48.30;;;;;;5030518;28;20224;-51
2023/12/03 02:31:55;;;;;;;0.00;0.00;;;28.00;48.40;;;;;;5011988;28;20220;-49
2023/12/03 02:34:25;;;;;;;0.00;0.00;;;28.00;48.40;;;;;;5013760;28;20196;-49
2023/12/03 02:36:56;;;;;;;0.00;0.00;;;28.00;48.30;;;;;;5012975;28;20197;-48
2023/12/03 02:39:29;;;;;;;0.00;0.00;;;28.00;48.30;;;;;;5031129;28;20204;-47
2023/12/03 02:41:59;;;;;;;0.00;0.00;;;28.00;48.20;;;;;;5031673;28;20617;-48
2023/12/03 02:44:30;;;;;;;0.00;0.00;;;28.10;48.30;;;;;;5018089;28;20207;-49
2023/12/03 02:47:01;;;;;;;0.00;0.00;;;28.00;48.20;;;;;;5011507;28;20341;-47
2023/12/03 02:49:31;;;;;;;0.00;0.00;;;28.10;48.20;;;;;;5012689;28;20228;-50
2023/12/03 02:52:02;;;;;;;0.00;0.00;;;28.10;48.20;;;;;;5021833;28;20227;-49
2023/12/03 02:54:33;;;;;;;0.00;0.00;;;28.10;48.20;;;;;;5030591;28;20200;-48
2023/12/03 02:57:05;;;;;;;0.00;0.00;;;28.10;48.20;;;;;;5030543;28;20246;-49
2023/12/03 02:59:35;;;;;;;0.00;0.00;;;28.10;48.20;;;;;;5031374;28;20203;-50
2023/12/03 03:02:06;;;;;;;0.00;0.00;;;28.10;48.70;;;;;;5011047;28;20216;-49
2023/12/03 03:04:37;;;;;;;0.00;0.00;;;28.10;48.00;;;;;;5018865;28;20196;-49
2023/12/03 03:07:08;;;;;;;0.00;0.00;;;28.10;47.90;;;;;;5011968;28;20692;-48
2023/12/03 03:09:40;;;;;;;0.00;0.00;;;28.10;47.80;;;;;;5014156;28;20228;-52
2023/12/03 03:12:11;;;;;;;0.00;0.00;;;28.10;47.70;;;;;;5014846;28;20217;-51
2023/12/03 03:14:42;;;;;;;0.00;0.00;;;28.10;47.80;;;;;;5018455;28;20203;-49
2023/12/03 03:17:13;;;;;;;0.00;0.00;;;28.10;47.80;;;;;;5019505;28;20188;-50
2023/12/03 03:19:46;;;;;;;0.00;0.00;;;28.10;47.90;;;;;;5033984;28;20714;-49
2023/12/03 03:22:17;;;;;;;0.00;0.00;;;28.10;48.00;;;;;;5034803;28;20196;-49
2023/12/03 03:24:49;;;;;;;0.00;0.00;;;28.10;47.90;;;;;;5034013;28;20211;-48
2023/12/03 03:27:20;;;;;;;0.00;0.00;;;28.10;47.90;;;;;;5034435;28;20200;-49
2023/12/03 03:29:51;;;;;;;0.00;0.00;;;28.10;47.90;;;;;;5033648;28;20230;-46
2023/12/03 03:32:21;;;;;;;0.00;0.00;;;28.10;47.80;;;;;;5033826;28;20206;-48
2023/12/03 03:34:52;;;;;;;0.00;0.00;;;28.10;47.80;;;;;;5017965;28;20208;-47
2023/12/03 03:37:23;;;;;;;0.00;0.00;;;28.10;47.70;;;;;;5034571;28;20196;-49
2023/12/03 03:39:55;;;;;;;0.00;0.00;;;28.20;47.70;;;;;;5034368;28;20200;-48
2023/12/03 03:42:26;;;;;;;0.00;0.00;;;28.20;47.60;;;;;;5034449;28;20223;-47
2023/12/03 03:44:57;;;;;;;0.00;0.00;;;28.20;47.60;;;;;;5034575;28;20675;-47
2023/12/03 03:47:27;;;;;;;0.00;0.00;;;28.20;47.70;;;;;;5034087;28;20200;-48
2023/12/03 03:49:58;;;;;;;0.00;0.00;;;28.20;47.70;;;;;;5034877;28;20715;-47
2023/12/03 03:52:29;;;;;;;0.00;0.00;;;28.20;47.60;;;;;;5034276;28;20204;-48
2023/12/03 03:55:01;;;;;;;0.00;0.00;;;28.20;47.50;;;;;;5033113;28;20683;-47
2023/12/03 03:57:32;;;;;;;0.00;0.00;;;28.20;47.40;;;;;;5034165;28;20197;-47
2023/12/03 04:00:03;;;;;;;0.00;0.00;;;28.20;47.20;;;;;;5033209;28;20219;-48
2023/12/03 04:02:34;;;;;;;0.00;0.00;;;28.20;47.20;;;;;;5034118;28;20188;-47
2023/12/03 04:05:05;;;;;;;0.00;0.00;;;28.20;47.10;;;;;;5033606;28;20675;-48
2023/12/03 04:07:35;;;;;;;0.00;0.00;;;28.10;46.90;;;;;;5034923;28;20672;-50
2023/12/03 04:10:09;;;;;;;0.00;0.00;;;28.20;47.00;;;;;;5033168;28;20719;-46
2023/12/03 04:12:41;;;;;;;0.00;0.00;;;28.20;47.10;;;;;;5033762;28;20283;-45
2023/12/03 04:15:12;;;;;;;0.00;0.00;;;28.10;47.10;;;;;;5033716;28;20196;-49
2023/12/03 04:17:43;;;;;;;0.00;0.00;;;28.10;47.20;;;;;;5033993;28;20652;-47
2023/12/03 04:20:14;;;;;;;0.00;0.00;;;28.10;47.20;;;;;;5033042;28;20220;-47
2023/12/03 04:22:45;;;;;;;0.00;0.00;;;28.10;47.20;;;;;;5033660;28;20229;-48
2023/12/03 04:25:18;;;;;;;0.00;0.00;;;28.10;47.20;;;;;;5033515;28;20203;-48
2023/12/03 04:27:48;;;;;;;0.00;0.00;;;28.10;47.10;;;;;;5033518;28;20200;-48
2023/12/03 04:30:19;;;;;;;0.00;0.00;;;28.10;47.10;;;;;;5030095;28;20231;-44
2023/12/03 04:32:50;;;;;;;0.00;0.00;;;28.10;47.10;;;;;;5032651;28;20691;-45
2023/12/03 04:35:22;;;;;;;0.00;0.00;;;28.10;47.10;;;;;;5031701;28;20203;-47
2023/12/03 04:37:55;;;;;;;0.00;0.00;;;28.10;46.80;;;;;;5032544;28;20228;-45
2023/12/03 04:40:28;;;;;;;0.00;0.00;;;28.10;46.30;;;;;;5033899;28;20239;-49
2023/12/03 04:42:59;;;;;;;0.00;0.00;;;28.10;45.60;;;;;;5033651;28;20728;-49
2023/12/03 04:45:32;;;;;;;0.00;0.00;;;28.10;44.60;;;;;;5017481;28;20197;-48
2023/12/03 04:48:02;;;;;;;0.00;0.00;;;28.00;43.60;;;;;;5013787;28;20279;-47
2023/12/03 04:50:33;;;;;;;0.00;0.00;;;27.90;43.00;;;;;;5023028;28;20239;-47
2023/12/03 04:53:07;;;;;;;0.00;0.00;;;27.90;42.60;;;;;;5030899;28;20905;-46
2023/12/03 04:55:39;;;;;;;0.00;0.00;;;27.80;42.40;;;;;;5031610;28;20592;-49
2023/12/03 04:58:10;;;;;;;0.00;0.00;;;27.70;42.50;;;;;;5032926;28;20211;-49
2023/12/03 05:00:41;;;;;;;0.00;0.00;;;27.70;42.80;;;;;;5032625;28;20216;-49
2023/12/03 05:03:11;;;;;;;0.00;0.00;;;27.60;42.90;;;;;;5033288;28;20196;-49
2023/12/03 05:05:42;;;;;;;0.00;0.00;;;27.60;43.20;;;;;;5033143;28;20192;-50
2023/12/03 05:08:13;;;;;;;0.00;0.00;;;27.60;43.30;;;;;;5033585;28;20200;-47
2023/12/03 05:10:45;;;;;;;0.00;0.00;;;27.50;43.50;;;;;;5033089;28;20597;-48
2023/12/03 05:13:18;;;;;;;0.00;0.00;;;27.50;43.70;;;;;;5033306;28;20204;-49
2023/12/03 05:15:49;;;;;;;0.00;0.00;;;27.50;43.70;;;;;;5032264;28;20200;-51
2023/12/03 05:18:20;;;;;;;0.00;0.00;;;27.50;43.80;;;;;;5032781;28;20200;-52
2023/12/03 05:20:50;;;;;;;0.00;0.00;;;27.50;44.40;;;;;;5032552;28;20216;-51
2023/12/03 05:23:21;;;;;;;0.00;0.00;;;27.50;43.80;;;;;;5032807;28;20193;-50
2023/12/03 05:25:54;;;;;;;0.00;0.00;;;27.50;43.80;;;;;;5032189;28;20196;-49
2023/12/03 05:28:25;;;;;;;0.00;0.00;;;27.50;43.70;;;;;;5032617;28;20655;-49
2023/12/03 05:30:56;;;;;;;0.00;0.00;;;27.50;43.70;;;;;;5032635;28;20285;-50
2023/12/03 05:33:27;;;;;;;0.00;0.00;;;27.50;43.50;;;;;;5032907;28;20254;-49
2023/12/03 05:35:58;;;;;;;0.00;0.00;;;27.40;43.40;;;;;;5032764;28;20196;-47
2023/12/03 05:38:28;;;;;;;0.00;0.00;;;27.50;44.00;;;;;;5032995;28;20200;-51
2023/12/03 05:41:01;;;;;;;0.00;0.00;;;27.40;43.20;;;;;;5032475;28;20220;-46
2023/12/03 05:43:32;;;;;;;0.00;0.00;;;27.40;43.20;;;;;;5031934;28;20681;-49
2023/12/03 05:46:03;;;;;;;0.00;0.00;;;27.40;43.20;;;;;;5032330;28;20200;-48
2023/12/03 05:48:34;;;;;;;0.00;0.00;;;27.30;43.20;;;;;;5032689;28;20195;-46
2023/12/03 05:51:10;;;;;;;0.00;0.00;;;27.30;43.10;;;;;;5032778;28;20231;-51
2023/12/03 05:53:40;;;;;;;0.00;0.00;;;27.30;43.10;;;;;;5032431;28;20242;-51
2023/12/03 05:56:14;;;;;;;0.00;0.00;;;27.20;43.10;;;;;;5012345;28;20196;-51
2023/12/03 05:58:45;;;;;;;0.00;0.00;;;27.20;43.10;;;;;;5011870;28;20201;-50
2023/12/03 06:01:25;;;;;;;0.00;0.00;;;27.20;43.10;;;;;;5011975;28;20212;-51
2023/12/03 06:03:55;;;;;;;0.00;0.00;;;27.20;43.20;;;;;;5018288;28;20195;-50
2023/12/03 06:06:26;;;;;;;0.00;0.00;;;27.20;43.20;;;;;;5032374;28;20196;-49
2023/12/03 06:08:57;;;;;;;0.00;0.00;;;27.10;43.20;;;;;;5032988;28;20191;-48
2023/12/03 06:11:30;;;;;;;0.00;0.00;;;27.10;43.20;;;;;;5031773;28;20243;-49
2023/12/03 06:14:00;;;;;;;0.00;0.00;;;27.10;43.20;;;;;;5031328;28;20196;-51
2023/12/03 06:16:31;;;;;;;0.00;0.00;;;27.10;43.30;;;;;;5031530;28;20207;-49
2023/12/03 06:19:02;;;;;;;0.00;0.00;;;27.10;43.30;;;;;;5032050;28;20215;-49
2023/12/03 06:21:33;;;;;;;0.00;0.00;;;27.10;43.30;;;;;;5032091;28;20216;-49
2023/12/03 06:24:04;;;;;;;0.00;0.00;;;27.00;43.20;;;;;;5032319;28;20204;-46
2023/12/03 06:26:36;;;;;;;0.00;0.00;;;27.00;43.20;;;;;;5032057;28;20204;-48
2023/12/03 06:29:07;;;;;;;0.00;0.00;;;27.00;43.80;;;;;;5031367;28;20197;-50
2023/12/03 06:31:37;;;;;;;0.00;0.00;;;27.00;43.20;;;;;;5031085;28;20339;-50
2023/12/03 06:34:08;;;;;;;0.00;0.00;;;27.00;43.20;;;;;;5028561;28;20192;-50
2023/12/03 06:36:39;;;;;;;0.00;0.00;;;26.90;43.10;;;;;;5031735;28;20215;-47
2023/12/03 06:39:09;;;;;;;0.00;0.00;;;26.90;43.10;;;;;;5031840;28;20196;-51
2023/12/03 06:41:43;;;;;;;0.00;0.00;;;26.90;43.20;;;;;;5028336;28;20223;-51
2023/12/03 06:44:14;;;;;;;0.00;0.00;;;26.80;43.10;;;;;;5030993;28;20210;-49
2023/12/03 06:46:45;;;;;;;0.00;0.00;;;26.80;43.20;;;;;;5030813;28;20218;-51
2023/12/03 06:49:15;;;;;;;0.00;0.00;;;26.80;43.10;;;;;;5030463;28;20743;-49
2023/12/03 06:51:46;;;;;;;0.00;0.00;;;26.70;43.20;;;;;;5030722;28;20242;-50
2023/12/03 06:54:17;;;;;;;0.00;0.00;;;26.70;43.20;;;;;;5031507;28;20683;-46
2023/12/03 06:56:49;;;;;;;0.00;0.00;;;26.70;43.20;;;;;;5031310;28;20192;-50
2023/12/03 06:59:20;;;;;;;0.00;0.00;;;26.60;43.10;;;;;;5030953;28;20196;-51
2023/12/03 07:01:51;;;;;;;0.00;0.00;;;26.60;43.20;;;;;;5031271;28;20224;-48
2023/12/03 07:04:22;;;;;;;0.00;0.00;;;26.60;43.30;;;;;;5025046;28;20193;-49
2023/12/03 07:06:52;;;;;;;0.00;0.00;;;26.60;43.30;;;;;;5011370;28;20201;-46
2023/12/03 07:09:24;;;;;;;0.00;0.00;;;26.50;43.10;;;;;;5011655;28;20676;-47
2023/12/03 07:11:56;;;;;;;0.00;0.00;;;26.50;43.10;;;;;;5011008;28;20251;-47
2023/12/03 07:14:27;;;;;;;0.00;0.00;;;26.50;43.00;;;;;;5010611;28;20201;-48
2023/12/03 07:16:58;;;;;;;0.00;0.00;;;26.50;43.00;;;;;;5010655;28;20642;-49
2023/12/03 07:19:28;;;;;;;0.00;0.00;;;26.50;43.00;;;;;;5011043;28;20197;-49
2023/12/03 07:21:59;;;;;;;0.00;0.00;;;26.40;43.00;;;;;;5009835;28;20216;-49
2023/12/03 07:24:30;;;;;;;0.00;0.00;;;26.40;43.00;;;;;;5018162;28;20208;-49
2023/12/03 07:27:03;;;;;;;0.00;0.00;;;26.30;43.00;;;;;;5031163;28;20200;-49
2023/12/03 07:29:33;;;;;;;0.00;0.00;;;26.30;43.00;;;;;;5030530;28;20193;-48
2023/12/03 07:32:04;;;;;;;0.00;0.00;;;26.30;43.10;;;;;;5030785;28;20246;-48
2023/12/03 07:34:35;;;;;;;0.00;0.00;;;26.30;43.10;;;;;;5030859;28;20206;-47
2023/12/03 07:37:06;;;;;;;0.00;0.00;;;26.20;43.10;;;;;;5030884;28;20208;-49
2023/12/03 07:39:38;;;;;;;0.00;0.00;;;26.20;43.10;;;;;;5031193;28;20196;-50
2023/12/03 07:42:11;;;;;;;0.00;0.00;;;26.20;43.10;;;;;;5031101;28;20865;-46
2023/12/03 07:44:42;;;;;;;0.00;0.00;;;26.20;43.20;;;;;;5031507;28;20560;-47
2023/12/03 07:47:13;;;;;;;0.00;0.00;;;26.10;43.20;;;;;;5030984;28;20203;-48
2023/12/03 07:49:43;;;;;;;0.00;0.00;;;26.10;43.20;;;;;;5030758;28;20192;-48
2023/12/03 07:52:17;;;;;;;0.00;0.00;;;26.10;43.20;;;;;;5030606;28;20239;-48
2023/12/03 07:54:48;;;;;;;0.00;0.00;;;26.10;43.20;;;;;;5030685;28;20569;-46
2023/12/03 07:57:21;;;;;;;0.00;0.00;;;26.10;43.20;;;;;;5033743;28;20609;-47
2023/12/03 07:59:51;;;;;;;0.00;0.00;;;26.00;43.20;;;;;;5034763;28;20660;-48
2023/12/03 08:02:22;;;;;;;0.10;0.10;;;26.00;43.20;;;;;;5034067;28;20200;-45
2023/12/03 08:04:53;;;;;;;0.00;0.00;;;26.00;43.20;;;;;;5034564;28;20208;-45
2023/12/03 08:07:23;;;;;;;0.00;0.00;;;25.90;43.20;;;;;;5035110;28;20192;-49
2023/12/03 08:09:54;;;;;;;0.00;0.00;;;25.90;43.20;;;;;;5034441;28;20196;-46
2023/12/03 08:12:27;;;;;;;0.00;0.00;;;25.90;43.20;;;;;;5033876;28;20234;-45
2023/12/03 08:14:58;;;;;;;0.00;0.00;;;25.90;43.20;;;;;;5029249;28;20192;-44
2023/12/03 08:17:28;;;;;;;0.00;0.00;;;25.80;43.20;;;;;;5030307;28;20192;-48
2023/12/03 08:19:59;;;;;;;0.00;0.00;;;25.80;43.20;;;;;;5033333;28;20192;-48
2023/12/03 08:22:30;;;;;;;0.00;0.00;;;25.80;43.20;;;;;;5033373;28;20215;-46
2023/12/03 08:25:00;;;;;;;0.00;0.00;;;25.70;43.10;;;;;;5032505;28;20192;-48
2023/12/03 08:27:33;;;;;;;0.00;0.00;;;25.70;43.20;;;;;;5033020;28;20199;-46
2023/12/03 08:30:04;;;;;;;0.00;0.00;;;25.70;43.20;;;;;;5032811;28;20207;-48
2023/12/03 08:32:34;;;;;;;0.00;0.00;;;25.70;43.30;;;;;;5029591;28;20704;-46
2023/12/03 08:35:05;;;;;;;0.00;0.00;;;25.70;43.30;;;;;;5018929;28;20184;-48
2023/12/03 08:37:36;;;;;;;0.00;0.00;;;25.60;43.30;;;;;;5019860;28;20201;-47
2023/12/03 08:40:09;;;;;;;0.00;0.00;;;25.60;43.30;;;;;;5018497;28;20211;-48
2023/12/03 08:42:44;;;;;;;0.00;0.00;;;25.60;43.40;;;;;;5032284;28;20258;-47
2023/12/03 08:45:14;;;;;;;0.00;0.00;;;25.50;43.30;;;;;;5025425;28;20199;-45
2023/12/03 08:47:45;;;;;;;0.00;0.00;;;25.60;43.40;;;;;;5032628;28;20192;-48
2023/12/03 08:50:16;;;;;;;0.00;0.00;;;25.50;43.30;;;;;;5032963;28;20208;-47
2023/12/03 08:52:47;;;;;;;0.10;0.10;;;25.50;43.40;;;;;;5032480;28;20251;-46
2023/12/03 08:55:17;;;;;;;0.00;0.00;;;25.40;43.40;;;;;;5032676;28;20644;-46
2023/12/03 08:57:50;;;;;;;0.00;0.00;;;25.40;43.40;;;;;;5032685;28;20200;-49
2023/12/03 09:00:21;;;;;;;0.00;0.00;;;25.40;43.40;;;;;;5032727;28;20216;-45
2023/12/03 09:02:52;;;;;;;0.10;0.10;;;25.40;43.40;;;;;;5032062;28;20192;-46
2023/12/03 09:05:23;;;;;;;0.00;0.00;;;25.30;44.00;;;;;;5026996;28;20211;-47
2023/12/03 09:07:53;;;;;;;0.00;0.00;;;25.30;43.40;;;;;;5033054;28;20200;-46
2023/12/03 09:10:24;;;;;;;0.00;0.00;;;25.30;43.40;;;;;;5033019;28;20218;-48
2023/12/03 09:12:57;;;;;;;0.00;0.00;;;25.30;43.40;;;;;;5031811;28;20219;-48
2023/12/03 09:15:28;;;;;;;0.00;0.00;;;25.20;43.40;;;;;;5032009;28;20224;-46
2023/12/03 09:17:59;;;;;;;0.00;0.00;;;25.20;43.50;;;;;;5032607;28;20200;-49
2023/12/03 09:20:29;;;;;;;0.00;0.00;;;25.20;43.50;;;;;;5031062;28;20231;-47
2023/12/03 09:23:00;;;;;;;0.00;0.00;;;25.20;43.50;;;;;;5032575;28;20647;-46
2023/12/03 09:25:31;;;;;;;0.00;0.00;;;25.20;43.60;;;;;;5031849;28;20196;-48
2023/12/03 09:28:04;;;;;;;0.00;0.00;;;25.10;43.50;;;;;;5032005;28;20671;-47
2023/12/03 09:30:34;;;;;;;0.00;0.00;;;25.10;43.50;;;;;;5032534;28;20222;-45
2023/12/03 09:33:05;;;;;;;0.00;0.00;;;25.10;43.50;;;;;;5031776;28;20224;-50
2023/12/03 09:35:36;;;;;;;0.00;0.00;;;25.10;43.60;;;;;;5032217;28;20200;-48
2023/12/03 09:38:06;;;;;;;0.00;0.00;;;25.00;43.60;;;;;;5031836;28;20188;-49
2023/12/03 09:40:37;;;;;;;0.00;0.00;;;25.00;43.60;;;;;;5031727;28;20208;-47
2023/12/03 09:43:11;;;;;;;0.00;0.00;;;25.00;43.60;;;;;;5031612;28;20200;-50
2023/12/03 09:45:42;;;;;;;0.00;0.00;;;25.00;43.60;;;;;;5032259;28;20196;-51
2023/12/03 09:48:14;;;;;;;0.00;0.00;;;24.90;43.60;;;;;;5031612;28;20684;-50
2023/12/03 09:50:46;;;;;;;0.00;0.00;;;24.90;43.60;;;;;;5029886;28;20216;-48
2023/12/03 09:53:21;;;;;;;0.00;0.00;;;24.90;43.60;;;;;;5032380;28;20234;-46
2023/12/03 09:55:53;;;;;;;0.00;0.00;;;24.90;43.60;;;;;;5032045;28;20203;-46
2023/12/03 09:58:26;;;;;;;0.00;0.00;;;24.80;43.60;;;;;;5032246;28;20652;-46
2023/12/03 10:00:57;;;;;;;0.00;0.00;;;24.80;43.70;;;;;;5029931;28;20227;-51
2023/12/03 10:03:28;;;;;;;0.10;0.10;;;24.80;43.70;;;;;;5031383;28;20218;-49
2023/12/03 10:05:59;;;;;;;0.00;0.00;;;24.80;43.70;;;;;;5031756;28;20188;-47
2023/12/03 10:08:31;;;;;;;0.05;0.05;;;24.70;43.70;;;;;;5031803;28;20688;-50
2023/12/03 10:11:03;;;;;;;0.00;0.00;;;24.70;43.80;;;;;;5031499;28;20223;-49
2023/12/03 10:13:36;;;;;;;0.00;0.00;;;24.70;43.80;;;;;;5031523;28;20227;-49
2023/12/03 10:16:10;;;;;;;0.00;0.00;;;24.70;43.80;;;;;;5030887;28;20188;-49
2023/12/03 10:18:41;;;;;;;0.00;0.00;;;24.70;43.80;;;;;;5029548;28;20196;-50
2023/12/03 10:21:12;;;;;;;0.00;0.00;;;24.70;43.80;;;;;;5031347;28;20215;-47
2023/12/03 10:23:43;;;;;;;0.00;0.00;;;24.60;43.80;;;;;;5030456;28;20207;-46
2023/12/03 10:26:17;;;;;;;0.00;0.00;;;24.60;43.80;;;;;;5028933;28;20557;-50
2023/12/03 10:28:49;;;;;;;0.00;0.00;;;24.60;43.90;;;;;;5030683;28;20592;-49
2023/12/03 10:31:21;;;;;;;0.08;0.08;;;24.60;43.90;;;;;;5030361;28;20216;-49
2023/12/03 10:33:52;;;;;;;0.00;0.00;;;24.50;43.80;;;;;;5030630;28;20197;-50
2023/12/03 10:36:22;;;;;;;0.00;0.00;;;24.60;43.90;;;;;;5030389;28;20362;-49
2023/12/03 10:38:53;;;;;;;0.00;0.00;;;24.50;43.90;;;;;;5031307;28;20196;-48
2023/12/03 10:41:25;;;;;;;0.00;0.00;;;24.50;43.90;;;;;;5030916;28;20223;-51
2023/12/03 10:43:59;;;;;;;0.08;0.08;;;24.50;44.00;;;;;;5030237;28;20361;-47
2023/12/03 10:46:30;;;;;;;0.00;0.00;;;24.40;44.00;;;;;;5024159;28;20262;-49
2023/12/03 10:49:01;;;;;;;0.10;0.10;;;24.40;44.00;;;;;;5030976;28;20196;-46
2023/12/03 10:51:35;;;;;;;0.00;0.00;;;24.40;44.00;;;;;;5029568;28;20700;-50
2023/12/03 10:54:06;;;;;;;0.00;0.00;;;24.40;44.00;;;;;;5015125;28;20211;-47
2023/12/03 10:56:37;;;;;;;0.00;0.00;;;24.40;44.10;;;;;;5030484;28;20657;-50
2023/12/03 10:59:13;;;;;;;0.00;0.00;;;24.40;44.00;;;;;;5030820;28;20679;-50
2023/12/03 11:01:48;;;;;;;0.00;0.00;;;24.30;44.10;;;;;;5030072;28;20207;-49
2023/12/03 11:04:23;;;;;;;0.00;0.00;;;24.30;44.10;;;;;;5030831;28;20540;-47
2023/12/03 11:06:55;;;;;;;0.00;0.00;;;24.30;44.10;;;;;;5030570;28;20188;-49
2023/12/03 11:09:27;;;;;;;0.00;0.00;;;24.30;44.10;;;;;;5031611;28;20287;-50
2023/12/03 11:11:58;;;;;;;0.00;0.00;;;24.30;44.10;;;;;;5030372;28;20228;-50
2023/12/03 11:14:31;;;;;;;0.00;0.00;;;24.20;44.10;;;;;;5028676;28;20192;-48
2023/12/03 11:17:09;;;;;;;0.10;0.10;;;24.20;44.10;;;;;;5028051;28;20211;-48
2023/12/03 11:19:42;;;;;;;0.00;0.00;;;24.20;44.10;;;;;;5028602;28;20242;-46
2023/12/03 11:22:22;;;;;;;0.10;0.10;;;24.20;44.10;;;;;;5030879;28;20568;-48
2023/12/03 11:25:01;;;;;;;0.00;0.00;;;24.20;44.20;;;;;;5030060;28;20192;-49
2023/12/03 11:27:32;;;;;;;0.00;0.00;;;24.10;44.10;;;;;;5029916;28;20199;-48
2023/12/03 11:30:04;;;;;;;0.00;0.00;;;24.10;44.10;;;;;;5029761;28;20203;-48
2023/12/03 11:32:35;;;;;;;0.00;0.00;;;24.10;44.20;;;;;;5034433;28;20265;-49
2023/12/03 11:35:09;;;;;;;0.00;0.00;;;24.10;44.20;;;;;;5034903;28;20263;-49
2023/12/03 11:37:43;;;;;;;0.00;0.00;;;24.00;44.20;;;;;;5034414;28;20652;-50
2023/12/03 11:40:15;;;;;;;0.00;0.00;;;24.00;44.20;;;;;;5034251;28;20215;-51
2023/12/03 11:42:50;;;;;;;0.00;0.00;;;24.00;44.30;;;;;;5032252;28;20533;-46
2023/12/03 11:45:25;;;;;;;0.00;0.00;;;24.00;44.30;;;;;;5032062;28;20195;-47
2023/12/03 11:48:09;;;;;;;0.00;0.00;;;24.00;44.30;;;;;;5034725;28;20191;-48
2023/12/03 11:50:40;;;;;;;0.00;0.00;;;24.00;44.30;;;;;;5031856;28;20212;-49
2023/12/03 11:53:13;;;;;;;0.00;0.00;;;24.00;44.30;;;;;;5034254;28;20212;-48
2023/12/03 11:55:49;;;;;;;0.10;0.10;;;23.90;44.30;;;;;;5032063;28;20193;-50
2023/12/03 11:58:22;;;;;;;0.00;0.00;;;23.90;44.30;;;;;;5034464;28;20231;-49
2023/12/03 12:00:55;;;;;;;0.00;0.00;;;23.90;44.30;;;;;;5034226;28;20270;-50
2023/12/03 12:03:25;;;;;;;0.00;0.00;;;23.90;44.30;;;;;;5034066;28;20211;-49
2023/12/03 12:05:57;;;;;;;0.03;0.03;;;23.80;44.30;;;;;;5034357;28;20215;-48
2023/12/03 12:08:28;;;;;;;0.00;0.00;;;23.80;44.30;;;;;;5034486;28;20235;-47
2023/12/03 12:11:00;;;;;;;0.00;0.00;;;23.80;44.30;;;;;;5034565;28;20220;-48
2023/12/03 12:13:31;;;;;;;0.00;0.00;;;23.80;44.30;;;;;;5034389;28;20258;-47
2023/12/03 12:16:04;;;;;;;0.00;0.00;;;23.80;44.40;;;;;;5034261;28;20279;-48
2023/12/03 12:18:35;;;;;;;0.00;0.00;;;23.80;44.40;;;;;;5033838;28;20235;-49
2023/12/03 12:21:14;;;;;;;0.00;0.00;;;23.70;44.40;;;;;;5030885;28;20672;-46
2023/12/03 12:23:47;;;;;;;0.00;0.00;;;23.70;44.40;;;;;;5033973;28;20196;-49
2023/12/03 12:26:18;;;;;;;0.00;0.00;;;23.70;44.40;;;;;;5033581;28;20644;-45
2023/12/03 12:28:49;;;;;;;0.00;0.00;;;23.70;44.40;;;;;;5033988;28;20664;-47
2023/12/03 12:31:26;;;;;;;0.00;0.00;;;23.70;44.40;;;;;;5034180;28;20227;-51
2023/12/03 12:33:59;;;;;;;0.00;0.00;;;23.60;44.40;;;;;;5033898;28;20267;-50
2023/12/03 12:36:30;;;;;;;0.00;0.00;;;23.60;44.40;;;;;;5033819;28;20565;-49
2023/12/03 12:39:01;;;;;;;0.00;0.00;;;23.60;44.40;;;;;;5032408;28;20210;-46
2023/12/03 12:41:41;;;;;;;0.00;0.00;;;23.60;44.50;;;;;;5014143;28;20271;-48
2023/12/03 12:44:12;;;;;;;0.00;0.00;;;23.60;44.50;;;;;;5013933;28;20216;-48
2023/12/03 12:46:58;;;;;;;0.00;0.00;;;23.50;44.50;;;;;;5014096;28;20204;-46
2023/12/03 12:49:29;;;;;;;0.00;0.00;;;23.50;44.50;;;;;;5013884;28;20286;-48
2023/12/03 12:52:12;;;;;;;0.10;0.10;;;23.50;44.50;;;;;;5013288;28;20225;-49
2023/12/03 12:54:49;;;;;;;0.00;0.00;;;23.50;44.60;;;;;;5021810;28;20211;-49
2023/12/03 12:57:21;;;;;;;0.10;0.10;;;23.50;44.60;;;;;;5031651;28;20201;-48
2023/12/03 12:59:54;;;;;;;0.00;0.00;;;23.50;44.60;;;;;;5013533;28;20197;-49
2023/12/03 13:02:27;;;;;;;0.00;0.00;;;23.40;44.60;;;;;;5013919;28;20200;-45
2023/12/03 13:04:58;;;;;;;0.10;0.10;;;23.40;44.60;;;;;;5013887;28;20220;-49
2023/12/03 13:07:30;;;;;;;0.00;0.00;;;23.40;44.60;;;;;;5014434;28;20207;-45
2023/12/03 13:10:01;;;;;;;0.10;0.10;;;23.40;44.70;;;;;;5015217;28;20184;-46